createdAt,value
2023-05-16T00:01:12.740Z,1.73
2023-05-16T00:03:42.399Z,1.50
2023-05-16T00:06:11.074Z,1.95
2023-05-16T00:08:40.506Z,1.75
2023-05-16T00:11:08.251Z,1.58
2023-05-16T00:13:36.291Z,1.80
2023-05-16T00:16:04.959Z,1.45
2023-05-16T00:18:32.766Z,1.60
2023-05-16T00:21:00.493Z,1.73
2023-05-16T00:23:28.291Z,1.55
2023-05-16T00:25:57.441Z,1.75
2023-05-16T00:28:25.359Z,1.88
2023-05-16T00:30:53.085Z,1.70
2023-05-16T00:33:20.963Z,1.90
2023-05-16T00:35:49.263Z,1.90
2023-05-16T00:38:18.573Z,1.90
2023-05-16T00:40:46.648Z,1.85
2023-05-16T00:43:15.806Z,1.40
2023-05-16T00:45:44.072Z,1.95
2023-05-16T00:48:13.485Z,1.42
2023-05-16T00:50:41.515Z,1.92
2023-05-16T00:53:09.361Z,1.95
2023-05-16T00:55:37.894Z,1.45
2023-05-16T00:58:06.530Z,1.60
2023-05-16T01:00:36.207Z,1.67
2023-05-16T01:03:06.514Z,1.92
2023-05-16T01:05:34.715Z,1.83
2023-05-16T01:08:02.520Z,1.92
2023-05-16T01:10:39.431Z,1.73
2023-05-16T01:13:12.707Z,1.80
2023-05-16T01:16:01.300Z,2.00
2023-05-16T01:18:35.627Z,2.05
2023-05-16T01:21:09.513Z,2.67
2023-05-16T01:23:50.647Z,1.73
2023-05-16T01:26:22.425Z,1.95
2023-05-16T01:28:51.950Z,1.60
2023-05-16T01:31:20.182Z,2.17
2023-05-16T01:33:48.467Z,2.10
2023-05-16T01:36:25.360Z,2.25
2023-05-16T01:39:03.383Z,1.58
2023-05-16T01:41:42.608Z,2.03
2023-05-16T01:44:19.934Z,1.73
2023-05-16T01:46:49.696Z,1.80
2023-05-16T01:49:24.749Z,1.60
2023-05-16T01:51:55.509Z,1.85
2023-05-16T01:54:27.081Z,1.88
2023-05-16T01:56:58.206Z,2.20
2023-05-16T01:59:26.654Z,1.58
2023-05-16T02:01:55.617Z,1.98
2023-05-16T02:04:24.229Z,1.70
2023-05-16T02:06:52.324Z,1.75
2023-05-16T02:09:20.115Z,1.75
2023-05-16T02:11:47.906Z,2.05
2023-05-16T02:14:17.013Z,1.60
2023-05-16T02:16:44.816Z,2.05
2023-05-16T02:19:12.816Z,1.88
2023-05-16T02:21:40.683Z,1.80
2023-05-16T02:24:08.609Z,1.65
2023-05-16T02:26:36.429Z,1.83
2023-05-16T02:29:04.322Z,1.67
2023-05-16T02:31:34.957Z,2.30
2023-05-16T02:34:02.994Z,2.03
2023-05-16T02:36:30.879Z,1.83
2023-05-16T02:38:58.650Z,1.95
2023-05-16T02:41:26.750Z,1.88
2023-05-16T02:43:54.546Z,2.15
2023-05-16T02:46:26.409Z,2.15
2023-05-16T02:48:55.930Z,1.60
2023-05-16T02:51:25.275Z,2.63
2023-05-16T02:53:54.001Z,2.10
2023-05-16T02:56:22.593Z,2.25
2023-05-16T02:58:51.441Z,2.05
2023-05-16T03:01:19.398Z,2.00
2023-05-16T03:03:47.282Z,1.85
2023-05-16T03:06:16.536Z,2.28
2023-05-16T03:08:44.388Z,1.73
2023-05-16T03:11:12.201Z,1.92
2023-05-16T03:13:41.760Z,1.95
2023-05-16T03:16:09.958Z,1.65
2023-05-16T03:18:37.919Z,2.13
2023-05-16T03:21:06.391Z,2.47
2023-05-16T03:23:35.538Z,1.90
2023-05-16T03:26:06.192Z,2.05
2023-05-16T03:28:33.992Z,2.22
2023-05-16T03:31:01.818Z,2.10
2023-05-16T03:33:29.666Z,1.90
2023-05-16T03:35:58.021Z,2.10
2023-05-16T03:38:25.964Z,1.95
2023-05-16T03:40:55.312Z,2.08
2023-05-16T03:43:23.106Z,2.05
2023-05-16T03:45:50.942Z,1.77
2023-05-16T03:48:18.746Z,1.90
2023-05-16T03:50:46.695Z,2.10
2023-05-16T03:53:14.661Z,2.13
2023-05-16T03:55:42.467Z,1.90
2023-05-16T03:58:12.669Z,1.90
2023-05-16T04:00:40.485Z,2.20
2023-05-16T04:03:08.693Z,2.10
2023-05-16T04:05:36.631Z,2.38
2023-05-16T04:08:04.597Z,1.80
2023-05-16T04:10:32.529Z,1.90
2023-05-16T04:13:00.266Z,1.75
2023-05-16T04:15:29.572Z,2.30
2023-05-16T04:17:57.536Z,1.73
2023-05-16T04:20:25.379Z,2.28
2023-05-16T04:22:53.353Z,2.42
2023-05-16T04:25:21.166Z,1.75
2023-05-16T04:27:48.929Z,1.60
2023-05-16T04:30:17.010Z,1.73
2023-05-16T04:32:46.206Z,2.17
2023-05-16T04:35:14.017Z,2.08
2023-05-16T04:37:42.443Z,2.00
2023-05-16T04:40:11.123Z,2.22
2023-05-16T04:42:38.910Z,2.30
2023-05-16T04:45:10.947Z,1.90
2023-05-16T04:47:39.026Z,1.75
2023-05-16T04:50:10.006Z,2.20
2023-05-16T04:52:38.171Z,1.75
2023-05-16T04:55:06.941Z,2.13
2023-05-16T04:57:34.714Z,1.90
2023-05-16T05:00:05.711Z,1.73
2023-05-16T05:02:33.554Z,1.95
2023-05-16T05:05:01.491Z,2.00
2023-05-16T05:07:30.746Z,2.15
2023-05-16T05:09:58.714Z,1.92
2023-05-16T05:12:27.179Z,1.77
2023-05-16T05:14:55.299Z,1.80
2023-05-16T05:17:23.917Z,2.13
2023-05-16T05:19:51.700Z,1.90
2023-05-16T05:22:19.498Z,1.90
2023-05-16T05:24:48.664Z,1.83
2023-05-16T05:27:16.426Z,1.80
2023-05-16T05:29:44.337Z,2.10
2023-05-16T05:32:12.426Z,1.77
2023-05-16T05:34:40.266Z,1.92
2023-05-16T05:37:08.050Z,1.90
2023-05-16T05:39:35.831Z,1.80
2023-05-16T05:42:05.285Z,1.80
2023-05-16T05:44:33.298Z,1.75
2023-05-16T05:47:01.108Z,1.63
2023-05-16T05:49:28.942Z,2.17
2023-05-16T05:51:57.016Z,1.63
2023-05-16T05:54:25.009Z,1.60
2023-05-16T05:56:52.808Z,1.75
2023-05-16T05:59:22.023Z,2.33
2023-05-16T06:01:52.721Z,1.55
2023-05-16T06:04:20.664Z,1.80
2023-05-16T06:06:48.911Z,1.65
2023-05-16T06:09:16.818Z,1.67
2023-05-16T06:11:45.849Z,1.48
2023-05-16T06:14:15.206Z,1.48
2023-05-16T06:16:44.713Z,1.63
2023-05-16T06:19:15.994Z,1.38
2023-05-16T06:21:44.387Z,1.70
2023-05-16T06:24:12.579Z,1.27
2023-05-16T06:26:40.448Z,1.60
2023-05-16T06:29:08.260Z,1.55
2023-05-16T06:31:36.347Z,1.88
2023-05-16T06:34:05.495Z,1.30
2023-05-16T06:36:33.277Z,1.33
2023-05-16T06:39:01.165Z,1.50
2023-05-16T06:41:28.953Z,1.65
2023-05-16T06:43:56.788Z,1.40
2023-05-16T06:46:24.627Z,1.40
2023-05-16T06:48:52.479Z,1.40
2023-05-16T06:51:21.664Z,1.33
2023-05-16T06:53:49.464Z,1.42
2023-05-16T06:56:17.256Z,1.27
2023-05-16T06:58:45.099Z,1.48
2023-05-16T07:01:13.148Z,1.55
2023-05-16T07:03:41.075Z,1.45
2023-05-16T07:06:09.270Z,1.30
2023-05-16T07:08:38.440Z,1.13
2023-05-16T07:11:06.326Z,1.30
2023-05-16T07:13:35.992Z,1.55
2023-05-16T07:16:04.443Z,1.48
2023-05-16T07:18:32.302Z,1.52
2023-05-16T07:21:00.522Z,1.38
2023-05-16T07:23:28.390Z,1.30
2023-05-16T07:25:57.668Z,1.50
2023-05-16T07:28:26.003Z,1.23
2023-05-16T07:30:54.730Z,1.45
2023-05-16T07:33:22.557Z,1.00
2023-05-16T07:35:51.207Z,1.20
2023-05-16T07:38:19.372Z,1.08
2023-05-16T07:40:47.492Z,1.23
2023-05-16T07:43:16.641Z,1.05
2023-05-16T07:45:44.643Z,1.15
2023-05-16T07:48:12.466Z,1.20
2023-05-16T07:50:40.325Z,1.00
2023-05-16T07:53:08.108Z,1.10
2023-05-16T07:55:36.133Z,1.08
2023-05-16T07:58:04.552Z,1.10
2023-05-16T08:00:33.926Z,1.10
2023-05-16T08:03:02.021Z,1.08
2023-05-16T08:05:30.528Z,1.10
2023-05-16T08:07:58.590Z,0.98
2023-05-16T08:10:26.442Z,1.30
2023-05-16T08:12:54.637Z,2.05
2023-05-16T08:15:22.722Z,1.25
2023-05-16T08:17:51.908Z,1.20
2023-05-16T08:20:19.841Z,1.00
2023-05-16T08:22:47.635Z,0.98
2023-05-16T08:25:15.422Z,1.02
2023-05-16T08:27:45.405Z,1.20
2023-05-16T08:30:14.324Z,1.17
2023-05-16T08:32:42.209Z,1.08
2023-05-16T08:35:13.071Z,1.13
2023-05-16T08:40:11.541Z,1.10
2023-05-16T08:42:40.847Z,0.98
2023-05-16T08:45:11.095Z,1.27
2023-05-16T08:47:42.282Z,1.00
2023-05-16T08:50:12.752Z,0.93
2023-05-16T08:52:43.185Z,1.20
2023-05-16T08:55:12.617Z,1.10
2023-05-16T08:57:42.292Z,1.10
2023-05-16T09:00:12.871Z,1.20
2023-05-16T09:02:41.649Z,1.30
2023-05-16T09:05:13.884Z,1.00
2023-05-16T09:07:42.039Z,1.02
2023-05-16T09:10:11.029Z,1.20
2023-05-16T09:12:40.275Z,1.00
2023-05-16T09:15:09.925Z,2.13
2023-05-16T09:17:41.356Z,1.10
2023-05-16T09:20:12.829Z,0.80
2023-05-16T09:22:41.146Z,1.00
2023-05-16T09:25:18.443Z,0.98
2023-05-16T09:30:29.716Z,0.93
2023-05-16T09:32:57.583Z,1.00
2023-05-16T09:35:43.029Z,0.80
2023-05-16T09:38:15.537Z,0.95
2023-05-16T09:40:44.133Z,1.08
2023-05-16T09:43:11.942Z,0.80
2023-05-16T09:45:39.788Z,0.80
2023-05-16T09:48:09.312Z,1.05
2023-05-16T09:50:39.076Z,1.20
2023-05-16T09:53:07.158Z,1.00
2023-05-16T09:55:35.181Z,1.00
2023-05-16T09:58:03.076Z,1.00
2023-05-16T10:00:32.283Z,0.95
2023-05-16T10:03:04.299Z,1.00
2023-05-16T10:05:33.447Z,0.93
2023-05-16T10:08:04.075Z,1.40
2023-05-16T10:10:34.297Z,0.93
2023-05-16T10:13:06.546Z,1.13
2023-05-16T10:15:37.159Z,1.55
2023-05-16T10:18:11.754Z,1.15
2023-05-16T10:20:42.498Z,1.10
2023-05-16T10:23:17.412Z,0.80
2023-05-16T10:25:46.718Z,0.80
2023-05-16T10:28:16.257Z,1.48
2023-05-16T10:30:45.522Z,1.10
2023-05-16T10:33:14.929Z,1.00
2023-05-16T10:35:43.306Z,1.13
2023-05-16T10:38:13.741Z,1.27
2023-05-16T10:40:42.151Z,1.08
2023-05-16T10:43:10.815Z,0.93
2023-05-16T10:45:41.842Z,1.10
2023-05-16T10:48:13.253Z,0.93
2023-05-16T10:50:42.964Z,0.90
2023-05-16T10:53:17.152Z,1.00
2023-05-16T10:55:46.727Z,1.00
2023-05-16T10:58:19.455Z,1.05
2023-05-16T11:00:49.922Z,1.08
2023-05-16T11:03:28.293Z,1.20
2023-05-16T11:06:02.418Z,0.90
2023-05-16T11:08:31.646Z,1.00
2023-05-16T11:11:39.603Z,0.93
2023-05-16T11:14:07.880Z,1.08
2023-05-16T11:16:35.961Z,0.85
2023-05-16T11:19:07.728Z,1.00
2023-05-16T11:22:12.550Z,1.05
2023-05-16T11:24:50.930Z,1.00
2023-05-16T11:27:27.880Z,1.20
2023-05-16T11:30:02.816Z,1.15
2023-05-16T11:32:32.489Z,1.00
2023-05-16T11:35:00.548Z,1.33
2023-05-16T11:37:28.489Z,0.90
2023-05-16T11:40:02.438Z,0.80
2023-05-16T11:42:33.848Z,1.05
2023-05-16T11:45:06.523Z,1.02
2023-05-16T11:47:34.568Z,1.00
2023-05-16T11:50:04.687Z,1.00
2023-05-16T11:52:33.069Z,0.90
2023-05-16T11:55:02.371Z,1.10
2023-05-16T11:57:30.331Z,1.15
2023-05-16T12:00:02.973Z,1.13
2023-05-16T12:02:33.060Z,0.93
2023-05-16T12:05:00.988Z,1.00
2023-05-16T12:07:29.514Z,1.10
2023-05-16T12:09:57.339Z,1.25
2023-05-16T12:12:26.512Z,1.08
2023-05-16T12:14:54.352Z,1.20
2023-05-16T12:17:22.416Z,1.10
2023-05-16T12:19:50.480Z,1.08
2023-05-16T12:22:18.819Z,1.10
2023-05-16T12:24:46.949Z,1.10
2023-05-16T12:27:22.378Z,0.90
2023-05-16T12:29:51.606Z,0.80
2023-05-16T12:32:20.128Z,1.08
2023-05-16T12:34:51.069Z,0.90
2023-05-16T12:39:48.281Z,1.05
2023-05-16T12:42:16.385Z,1.23
2023-05-16T12:44:46.598Z,1.17
2023-05-16T12:47:18.015Z,1.30
2023-05-16T12:49:46.842Z,1.10
2023-05-16T12:52:20.684Z,1.00
2023-05-16T12:54:49.253Z,1.20
2023-05-16T12:57:17.089Z,0.80
2023-05-16T12:59:44.843Z,1.25
2023-05-16T13:02:12.974Z,1.10
2023-05-16T13:04:42.084Z,1.30
2023-05-16T13:07:09.887Z,1.20
2023-05-16T13:09:37.805Z,1.00
2023-05-16T13:12:06.070Z,1.10
2023-05-16T13:14:33.873Z,0.90
2023-05-16T13:17:01.722Z,1.10
2023-05-16T13:19:31.712Z,1.00
2023-05-16T13:22:00.893Z,1.10
2023-05-16T13:24:28.708Z,1.48
2023-05-16T13:26:56.574Z,1.10
2023-05-16T13:29:24.426Z,1.10
2023-05-16T13:31:52.329Z,1.00
2023-05-16T13:34:20.206Z,1.30
2023-05-16T13:36:54.386Z,1.02
2023-05-16T13:39:24.284Z,1.00
2023-05-16T13:41:52.566Z,1.20
2023-05-16T13:44:21.503Z,1.00
2023-05-16T13:46:49.685Z,1.00
2023-05-16T13:49:17.485Z,1.10
2023-05-16T13:51:45.449Z,1.50
2023-05-16T13:54:13.258Z,1.17
2023-05-16T13:56:42.453Z,1.20
2023-05-16T13:59:12.377Z,1.20
2023-05-16T14:01:43.186Z,1.35
2023-05-16T14:04:11.267Z,1.42
2023-05-16T14:06:40.006Z,1.00
2023-05-16T14:09:08.270Z,1.08
2023-05-16T14:11:36.079Z,1.20
2023-05-16T14:14:05.243Z,1.20
2023-05-16T14:16:33.677Z,1.30
2023-05-16T14:19:01.672Z,1.10
2023-05-16T14:21:29.647Z,1.00
2023-05-16T14:23:57.462Z,2.05
2023-05-16T14:26:26.611Z,1.20
2023-05-16T14:28:56.123Z,1.17
2023-05-16T14:31:25.506Z,1.00
2023-05-16T14:33:53.427Z,1.10
2023-05-16T14:36:21.233Z,1.20
2023-05-16T14:38:49.412Z,1.02
2023-05-16T14:41:17.624Z,1.27
2023-05-16T14:43:46.076Z,1.00
2023-05-16T14:46:14.084Z,1.10
2023-05-16T14:48:43.326Z,1.00
2023-05-16T14:51:11.991Z,1.27
2023-05-16T14:53:39.805Z,1.10
2023-05-16T14:56:07.853Z,0.75
2023-05-16T14:58:35.873Z,1.05
2023-05-16T15:01:04.261Z,1.00
2023-05-16T15:03:50.750Z,1.10
2023-05-16T15:06:24.369Z,1.25
2023-05-16T15:08:52.196Z,1.10
2023-05-16T15:11:20.062Z,0.80
2023-05-16T15:13:48.321Z,0.90
2023-05-16T15:16:16.266Z,0.98
2023-05-16T15:18:44.183Z,1.27
2023-05-16T15:21:12.035Z,1.08
2023-05-16T15:23:41.565Z,0.95
2023-05-16T15:26:09.369Z,1.15
2023-05-16T15:28:37.532Z,1.13
2023-05-16T15:31:05.664Z,0.90
2023-05-16T15:33:33.480Z,0.88
2023-05-16T15:36:01.634Z,1.10
2023-05-16T15:38:29.481Z,1.10
2023-05-16T15:41:15.348Z,1.00
2023-05-16T15:43:46.471Z,1.25
2023-05-16T15:46:14.400Z,1.10
2023-05-16T15:48:44.687Z,0.90
2023-05-16T15:51:13.586Z,1.05
2023-05-16T15:53:41.385Z,1.10
2023-05-16T15:56:10.792Z,1.10
2023-05-16T15:58:38.552Z,1.27
2023-05-16T16:01:06.568Z,0.90
2023-05-16T16:03:34.495Z,1.40
2023-05-16T16:06:02.406Z,1.05
2023-05-16T16:08:30.219Z,1.45
2023-05-16T16:10:58.467Z,1.33
2023-05-16T16:13:27.715Z,1.30
2023-05-16T16:15:55.781Z,1.25
2023-05-16T16:18:23.912Z,1.17
2023-05-16T16:20:52.913Z,1.48
2023-05-16T16:23:21.646Z,1.60
2023-05-16T16:25:49.466Z,1.38
2023-05-16T16:28:17.325Z,1.42
2023-05-16T16:30:47.408Z,1.50
2023-05-16T16:33:15.255Z,1.42
2023-05-16T16:35:43.116Z,1.48
2023-05-16T16:38:10.924Z,2.08
2023-05-16T16:40:38.797Z,1.55
2023-05-16T16:43:07.808Z,1.60
2023-05-16T16:45:35.693Z,1.52
2023-05-16T16:48:05.312Z,1.70
2023-05-16T16:50:34.304Z,1.50
2023-05-16T16:53:04.258Z,1.70
2023-05-16T16:55:32.207Z,1.83
2023-05-16T16:58:00.025Z,1.52
2023-05-16T17:00:28.089Z,1.92
2023-05-16T17:02:56.004Z,1.73
2023-05-16T17:05:25.462Z,1.80
2023-05-16T17:07:53.564Z,1.70
2023-05-16T17:10:22.264Z,1.77
2023-05-16T17:12:50.159Z,1.92
2023-05-16T17:15:18.283Z,1.90
2023-05-16T17:17:46.658Z,1.90
2023-05-16T17:20:14.758Z,1.70
2023-05-16T17:22:44.748Z,2.00
2023-05-16T17:25:12.721Z,2.08
2023-05-16T17:27:41.643Z,2.17
2023-05-16T17:30:10.593Z,2.15
2023-05-16T17:32:39.886Z,2.78
2023-05-16T17:35:08.170Z,2.28
2023-05-16T17:37:36.138Z,2.67
2023-05-16T17:40:06.207Z,2.53
2023-05-16T17:42:33.976Z,2.58
2023-05-16T17:45:04.669Z,2.28
2023-05-16T17:47:33.104Z,1.90
2023-05-16T17:50:01.134Z,1.70
2023-05-16T17:52:29.187Z,1.80
2023-05-16T17:54:57.160Z,1.70
2023-05-16T17:57:26.480Z,1.60
2023-05-16T17:59:54.406Z,1.70
2023-05-16T18:02:22.291Z,1.60
2023-05-16T18:04:50.121Z,1.30
2023-05-16T18:07:18.030Z,1.77
2023-05-16T18:09:45.924Z,1.80
2023-05-16T18:12:13.877Z,1.40
2023-05-16T18:14:45.302Z,1.80
2023-05-16T18:17:13.548Z,1.77
2023-05-16T18:19:41.597Z,1.52
2023-05-16T18:22:11.951Z,1.80
2023-05-16T18:24:39.840Z,1.70
2023-05-16T18:27:07.913Z,1.58
2023-05-16T18:29:35.714Z,1.40
2023-05-16T18:32:05.278Z,1.55
2023-05-16T18:34:34.038Z,1.60
2023-05-16T18:37:01.941Z,1.52
2023-05-16T18:39:29.707Z,1.83
2023-05-16T18:41:57.936Z,1.40
2023-05-16T18:44:25.805Z,1.75
2023-05-16T18:46:53.965Z,1.90
2023-05-16T18:49:23.098Z,2.47
2023-05-16T18:51:50.964Z,1.60
2023-05-16T18:54:18.747Z,1.65
2023-05-16T18:56:47.014Z,1.42
2023-05-16T18:59:14.852Z,1.80
2023-05-16T19:01:42.667Z,2.00
2023-05-16T19:04:10.545Z,1.60
2023-05-16T19:06:39.896Z,1.70
2023-05-16T19:09:09.160Z,2.42
2023-05-16T19:11:37.791Z,1.70
2023-05-16T19:14:05.717Z,1.63
2023-05-16T19:16:33.985Z,1.70
2023-05-16T19:19:01.898Z,1.67
2023-05-16T19:21:29.800Z,2.20
2023-05-16T19:23:58.936Z,1.52
2023-05-16T19:26:27.920Z,1.90
2023-05-16T19:28:55.968Z,1.70
2023-05-16T19:31:23.810Z,1.83
2023-05-16T19:33:51.634Z,1.73
2023-05-16T19:36:19.554Z,2.22
2023-05-16T19:38:47.372Z,1.60
2023-05-16T19:41:16.589Z,2.13
2023-05-16T19:43:44.395Z,2.03
2023-05-16T19:46:12.198Z,2.08
2023-05-16T19:48:40.218Z,1.90
2023-05-16T19:51:09.140Z,2.30
2023-05-16T19:53:36.948Z,2.10
2023-05-16T19:56:05.234Z,1.92
2023-05-16T19:58:34.441Z,1.90
2023-05-16T20:01:02.253Z,2.00
2023-05-16T20:03:30.328Z,2.25
2023-05-16T20:05:58.232Z,2.17
2023-05-16T20:08:26.147Z,2.25
2023-05-16T20:10:54.550Z,2.10
2023-05-16T20:13:22.399Z,2.53
2023-05-16T20:15:51.572Z,2.10
2023-05-16T20:18:19.663Z,2.20
2023-05-16T20:20:47.517Z,1.90
2023-05-16T20:23:15.330Z,2.13
2023-05-16T20:25:43.450Z,2.10
2023-05-16T20:28:11.265Z,2.10
2023-05-16T20:30:39.108Z,2.15
2023-05-16T20:33:08.339Z,2.40
2023-05-16T20:35:36.208Z,2.50
2023-05-16T20:38:04.081Z,1.80
2023-05-16T20:40:32.008Z,2.00
2023-05-16T20:42:59.849Z,2.92
2023-05-16T20:45:30.924Z,2.35
2023-05-16T20:50:27.933Z,2.30
2023-05-16T20:52:55.780Z,2.67
2023-05-16T20:55:23.958Z,2.22
2023-05-16T20:57:51.735Z,2.67
2023-05-16T21:00:19.934Z,2.42
2023-05-16T21:02:47.804Z,2.33
2023-05-16T21:05:34.708Z,2.40
2023-05-16T21:08:04.050Z,2.72
2023-05-16T21:10:31.872Z,2.58
2023-05-16T21:12:59.674Z,2.72
2023-05-16T21:15:27.740Z,2.53
2023-05-16T21:17:55.740Z,2.42
2023-05-16T21:20:23.606Z,2.80
2023-05-16T21:22:51.444Z,2.50
2023-05-16T21:25:20.651Z,2.50
2023-05-16T21:27:48.520Z,2.72
2023-05-16T21:30:16.571Z,2.50
2023-05-16T21:32:44.373Z,2.47
2023-05-16T21:35:12.237Z,2.38
2023-05-16T21:37:40.042Z,2.53
2023-05-16T21:40:10.024Z,2.92
2023-05-16T21:42:39.154Z,3.50
2023-05-16T21:45:12.454Z,2.92
2023-05-16T21:47:40.276Z,2.78
2023-05-16T21:50:09.559Z,2.85
2023-05-16T21:52:37.477Z,2.97
2023-05-16T21:55:06.325Z,3.03
2023-05-16T21:57:34.227Z,2.80
2023-05-16T22:00:06.660Z,2.72
2023-05-16T22:02:35.753Z,2.83
2023-05-16T22:05:04.796Z,2.70
2023-05-16T22:07:32.778Z,3.17
2023-05-16T22:10:00.804Z,3.05
2023-05-16T22:12:29.770Z,2.83
2023-05-16T22:14:58.186Z,2.90
2023-05-16T22:17:27.481Z,3.40
2023-05-16T22:19:55.690Z,3.05
2023-05-16T22:22:23.502Z,2.63
2023-05-16T22:24:51.270Z,3.33
2023-05-16T22:27:19.072Z,2.90
2023-05-16T22:29:46.872Z,3.10
2023-05-16T22:32:14.898Z,3.35
2023-05-16T22:34:44.074Z,3.47
2023-05-16T22:37:11.938Z,3.10
2023-05-16T22:39:39.706Z,3.22
2023-05-16T22:42:07.611Z,3.08
2023-05-16T22:44:35.428Z,3.58
2023-05-16T22:47:03.497Z,2.85
2023-05-16T22:49:31.266Z,3.08
2023-05-16T22:52:00.508Z,3.40
2023-05-16T22:54:28.320Z,3.22
2023-05-16T22:56:56.350Z,3.28
2023-05-16T22:59:24.257Z,3.63
2023-05-16T23:01:52.140Z,4.50
2023-05-16T23:04:19.940Z,4.28
2023-05-16T23:06:47.822Z,2.95
2023-05-16T23:09:16.982Z,3.88
2023-05-16T23:11:44.762Z,2.92
2023-05-16T23:14:12.526Z,3.58
2023-05-16T23:16:40.397Z,3.72
2023-05-16T23:19:09.810Z,3.60
2023-05-16T23:21:38.383Z,3.10
2023-05-16T23:24:06.728Z,3.50
2023-05-16T23:26:35.875Z,3.47
2023-05-16T23:29:03.727Z,3.53
2023-05-16T23:31:31.545Z,3.78
2023-05-16T23:33:59.389Z,3.38
2023-05-16T23:36:27.358Z,3.03
2023-05-16T23:38:55.169Z,3.17
2023-05-16T23:41:22.990Z,3.53
2023-05-16T23:43:52.188Z,3.78
2023-05-16T23:46:19.982Z,3.72
2023-05-16T23:48:48.070Z,3.30
2023-05-16T23:51:15.942Z,3.67
2023-05-16T23:53:43.800Z,3.50
2023-05-16T23:56:11.616Z,3.58
2023-05-16T23:58:39.443Z,3.55
